Time;durP1;ratioP1;P1;durP2;ratioP2;P2;SDS_P1;SDS_P2;PMS_P1;PMS_P2;Temp;Humidity;BMP_temperature;BMP_pressure;BME280_temperature;BME280_humidity;BME280_pressure;Samples;Min_cycle;Max_cycle;Signal;HPM_P1;HPM_P2
2022/11/08 00:02:20;;;;;;;11.30;2.97;;;;;;;;;;4977896;28;92485;-76
2022/11/08 00:04:46;;;;;;;10.90;3.17;;;;;;;;;;4992017;28;93175;-76
2022/11/08 00:15:28;;;;;;;6.70;2.28;;;;;;;;;;4998153;28;92409;-76
2022/11/08 00:17:55;;;;;;;16.85;3.08;;;;;;;;;;4997785;28;93222;-76
2022/11/08 00:20:21;;;;;;;13.15;3.00;;;;;;;;;;4996895;28;93317;-76
2022/11/08 00:22:48;;;;;;;11.07;2.67;;;;;;;;;;4998452;28;93564;-76
2022/11/08 00:25:14;;;;;;;14.32;3.25;;;;;;;;;;4998733;28;92869;-76
2022/11/08 00:27:41;;;;;;;10.10;3.05;;;;;;;;;;4999233;28;93402;-76
2022/11/08 00:30:08;;;;;;;13.52;2.97;;;;;;;;;;4998374;28;93974;-76
2022/11/08 00:32:34;;;;;;;10.70;2.95;;;;;;;;;;4994808;28;96648;-76
2022/11/08 00:35:00;;;;;;;12.13;3.17;;;;;;;;;;4996910;28;92604;-75
2022/11/08 00:37:27;;;;;;;10.95;3.00;;;;;;;;;;4995711;28;93900;-76
2022/11/08 00:39:53;;;;;;;11.32;2.75;;;;;;;;;;4977983;28;92285;-76
2022/11/08 00:42:20;;;;;;;12.20;3.22;;;;;;;;;;4977657;28;92428;-75
2022/11/08 00:44:46;;;;;;;13.95;2.88;;;;;;;;;;4977881;28;93089;-75
2022/11/08 00:47:12;;;;;;;11.02;3.22;;;;;;;;;;4995100;28;94135;-75
2022/11/08 00:49:39;;;;;;;12.52;3.47;;;;;;;;;;4999811;28;91987;-76
2022/11/08 00:52:05;;;;;;;14.95;4.20;;;;;;;;;;4998062;28;94185;-75
2022/11/08 00:54:32;;;;;;;10.07;2.60;;;;;;;;;;4997956;28;92428;-75
2022/11/08 00:56:58;;;;;;;7.00;2.70;;;;;;;;;;4995776;28;94762;-76
2022/11/08 00:59:25;;;;;;;12.38;3.10;;;;;;;;;;4997454;28;93391;-76
2022/11/08 01:01:53;;;;;;;16.25;3.85;;;;;;;;;;4997073;28;92522;-76
2022/11/08 01:04:20;;;;;;;14.00;2.95;;;;;;;;;;4997610;28;94014;-76
2022/11/08 01:06:47;;;;;;;10.88;3.15;;;;;;;;;;4997290;28;94542;-76
2022/11/08 01:09:13;;;;;;;9.40;3.22;;;;;;;;;;4996838;28;92342;-76
2022/11/08 01:11:44;;;;;;;15.27;3.20;;;;;;;;;;5000804;28;94082;-76
2022/11/08 01:14:11;;;;;;;15.00;3.28;;;;;;;;;;4997768;28;91816;-75
2022/11/08 01:16:40;;;;;;;10.20;2.70;;;;;;;;;;4995907;28;93879;-76
2022/11/08 01:19:06;;;;;;;10.68;2.70;;;;;;;;;;4996932;28;94658;-76
2022/11/08 01:21:32;;;;;;;15.32;3.45;;;;;;;;;;4995611;28;94934;-76
2022/11/08 01:23:59;;;;;;;11.00;3.05;;;;;;;;;;4996370;28;96282;-76
2022/11/08 01:26:26;;;;;;;7.57;3.15;;;;;;;;;;4996647;28;93159;-76
2022/11/08 01:28:53;;;;;;;13.65;3.53;;;;;;;;;;4997799;28;92403;-76
2022/11/08 01:31:21;;;;;;;13.68;2.97;;;;;;;;;;4996439;28;93826;-76
2022/11/08 01:33:47;;;;;;;9.93;3.33;;;;;;;;;;5000371;28;93153;-76
2022/11/08 01:36:18;;;;;;;10.73;2.80;;;;;;;;;;4997092;28;93840;-75
2022/11/08 01:38:44;;;;;;;14.32;3.45;;;;;;;;;;4990075;28;94024;-76
2022/11/08 01:41:12;;;;;;;9.80;2.67;;;;;;;;;;4996843;28;92482;-76
2022/11/08 01:43:38;;;;;;;9.52;2.85;;;;;;;;;;4996831;28;93824;-76
2022/11/08 01:46:14;;;;;;;14.25;3.13;;;;;;;;;;4993631;28;96576;-76
2022/11/08 01:48:44;;;;;;;12.15;3.03;;;;;;;;;;4996337;28;92601;-75
2022/11/08 01:51:11;;;;;;;7.53;2.85;;;;;;;;;;4995156;28;93152;-75
2022/11/08 01:53:38;;;;;;;9.40;2.70;;;;;;;;;;4996126;28;94138;-76
2022/11/08 01:56:05;;;;;;;6.65;2.47;;;;;;;;;;5000245;28;92570;-76
2022/11/08 01:58:33;;;;;;;9.68;3.20;;;;;;;;;;4996005;28;94139;-76
2022/11/08 02:01:00;;;;;;;11.57;3.30;;;;;;;;;;4996510;28;92505;-76
2022/11/08 02:03:28;;;;;;;11.27;3.45;;;;;;;;;;4996852;28;95113;-75
2022/11/08 02:05:55;;;;;;;8.02;3.28;;;;;;;;;;4995817;28;93549;-76
2022/11/08 02:08:25;;;;;;;12.05;3.83;;;;;;;;;;4995855;28;92529;-76
2022/11/08 02:10:52;;;;;;;12.20;3.95;;;;;;;;;;4994140;28;94845;-76
2022/11/08 02:13:23;;;;;;;7.63;3.03;;;;;;;;;;4995205;28;93177;-76
2022/11/08 02:15:49;;;;;;;9.48;3.33;;;;;;;;;;4999361;28;92470;-76
2022/11/08 02:18:17;;;;;;;9.18;3.38;;;;;;;;;;4994842;28;93324;-76
2022/11/08 02:21:05;;;;;;;12.25;3.33;;;;;;;;;;4994029;28;92510;-76
2022/11/08 02:23:43;;;;;;;10.68;3.40;;;;;;;;;;4994713;28;93921;-77
2022/11/08 02:26:10;;;;;;;10.10;3.35;;;;;;;;;;4994909;28;94495;-76
2022/11/08 02:28:39;;;;;;;12.43;3.40;;;;;;;;;;4994172;28;91807;-76
2022/11/08 02:31:09;;;;;;;8.00;3.15;;;;;;;;;;4995107;28;93266;-76
2022/11/08 02:33:36;;;;;;;15.43;3.17;;;;;;;;;;4992704;28;94144;-77
2022/11/08 02:36:02;;;;;;;8.35;3.10;;;;;;;;;;4990100;28;95341;-76
2022/11/08 02:38:29;;;;;;;9.10;3.95;;;;;;;;;;4991334;28;96294;-76
2022/11/08 02:40:55;;;;;;;13.07;3.33;;;;;;;;;;4993538;28;92855;-76
2022/11/08 02:43:23;;;;;;;14.75;3.78;;;;;;;;;;4993855;28;93236;-77
2022/11/08 02:45:49;;;;;;;16.00;3.05;;;;;;;;;;4993632;28;94086;-76
2022/11/08 02:48:16;;;;;;;13.07;3.67;;;;;;;;;;4993457;28;92520;-76
2022/11/08 02:50:43;;;;;;;6.55;2.67;;;;;;;;;;4994680;28;93158;-76
2022/11/08 02:53:09;;;;;;;14.45;3.53;;;;;;;;;;4993363;28;93500;-76
2022/11/08 02:55:36;;;;;;;8.88;3.13;;;;;;;;;;4992873;28;92403;-76
2022/11/08 02:58:04;;;;;;;7.20;3.03;;;;;;;;;;4994977;28;92873;-76
2022/11/08 03:00:30;;;;;;;13.55;3.40;;;;;;;;;;4994966;28;95653;-76
2022/11/08 03:02:57;;;;;;;10.25;2.90;;;;;;;;;;4992945;28;96553;-76
2022/11/08 03:05:24;;;;;;;11.43;3.20;;;;;;;;;;4993835;28;94162;-76
2022/11/08 03:07:50;;;;;;;10.02;3.80;;;;;;;;;;4994436;28;92461;-76
2022/11/08 03:10:17;;;;;;;8.80;3.65;;;;;;;;;;4993697;28;94106;-76
2022/11/08 03:12:43;;;;;;;9.32;3.50;;;;;;;;;;4994115;28;93452;-76
2022/11/08 03:15:10;;;;;;;13.82;3.10;;;;;;;;;;4993634;28;92596;-76
2022/11/08 03:17:36;;;;;;;12.18;3.95;;;;;;;;;;4954726;28;1112457;-76
2022/11/08 03:20:03;;;;;;;12.43;3.25;;;;;;;;;;4995800;28;94172;-76
2022/11/08 03:22:29;;;;;;;7.13;2.85;;;;;;;;;;4998266;28;92496;-76
2022/11/08 03:24:56;;;;;;;9.80;3.03;;;;;;;;;;4993403;28;95665;-76
2022/11/08 03:27:22;;;;;;;10.70;2.85;;;;;;;;;;4995575;28;92457;-76
2022/11/08 03:29:50;;;;;;;5.63;3.00;;;;;;;;;;4994903;28;92948;-76
2022/11/08 03:32:16;;;;;;;12.68;3.17;;;;;;;;;;4962897;28;94349;-76
2022/11/08 03:34:42;;;;;;;7.43;3.60;;;;;;;;;;4999170;28;92416;-76
2022/11/08 03:37:09;;;;;;;4.00;2.72;;;;;;;;;;4997815;28;93274;-77
2022/11/08 03:39:35;;;;;;;9.52;3.30;;;;;;;;;;4978463;28;93986;-76
2022/11/08 03:42:03;;;;;;;11.60;3.13;;;;;;;;;;4978698;28;91774;-77
2022/11/08 03:44:30;;;;;;;8.63;3.20;;;;;;;;;;4982688;28;93093;-76
2022/11/08 03:46:57;;;;;;;7.40;3.05;;;;;;;;;;4998311;28;92481;-76
2022/11/08 03:49:23;;;;;;;7.88;2.85;;;;;;;;;;4997250;28;94749;-76
2022/11/08 03:51:50;;;;;;;8.18;3.08;;;;;;;;;;4997335;28;93636;-76
2022/11/08 03:54:16;;;;;;;11.10;3.30;;;;;;;;;;4998123;28;92761;-76
2022/11/08 03:56:42;;;;;;;5.05;2.80;;;;;;;;;;4998114;28;93018;-76
2022/11/08 03:59:09;;;;;;;8.27;2.70;;;;;;;;;;4995577;28;94240;-77
2022/11/08 04:01:36;;;;;;;6.25;2.97;;;;;;;;;;4997913;28;92447;-77
2022/11/08 04:04:04;;;;;;;9.65;2.90;;;;;;;;;;4997941;28;93596;-76
2022/11/08 04:06:30;;;;;;;4.70;2.88;;;;;;;;;;5000491;28;92544;-76
2022/11/08 04:08:57;;;;;;;14.45;3.38;;;;;;;;;;4998111;28;92400;-76
2022/11/08 04:16:55;;;;;;;11.07;3.28;;;;;;;;;;4998190;28;96193;-76
2022/11/08 04:22:06;;;;;;;7.43;2.75;;;;;;;;;;4998206;28;92475;-76
2022/11/08 04:24:33;;;;;;;9.18;2.53;;;;;;;;;;4998445;28;94265;-76
2022/11/08 04:27:00;;;;;;;9.80;2.50;;;;;;;;;;5000559;28;94340;-76
2022/11/08 04:29:26;;;;;;;11.40;2.85;;;;;;;;;;4997803;28;93748;-76
2022/11/08 04:31:52;;;;;;;5.47;3.03;;;;;;;;;;4998272;28;92511;-76
2022/11/08 04:34:19;;;;;;;12.18;3.35;;;;;;;;;;4996254;28;92459;-76
2022/11/08 04:36:45;;;;;;;6.20;2.45;;;;;;;;;;4998362;28;92743;-76
2022/11/08 04:39:11;;;;;;;6.72;2.97;;;;;;;;;;4978904;28;96889;-76
2022/11/08 04:41:38;;;;;;;9.73;3.00;;;;;;;;;;5014498;28;93652;-75
2022/11/08 04:44:04;;;;;;;6.70;2.83;;;;;;;;;;4992846;28;94461;-76
2022/11/08 04:46:31;;;;;;;6.65;2.30;;;;;;;;;;4995193;28;94927;-76
2022/11/08 04:48:58;;;;;;;8.05;3.15;;;;;;;;;;4999852;28;92528;-76
2022/11/08 04:51:26;;;;;;;5.78;2.70;;;;;;;;;;4997035;28;93628;-76
2022/11/08 04:53:56;;;;;;;11.65;2.50;;;;;;;;;;4996610;28;92445;-76
2022/11/08 04:56:23;;;;;;;10.35;2.63;;;;;;;;;;4996576;28;94102;-76
2022/11/08 04:58:51;;;;;;;4.38;2.40;;;;;;;;;;4997119;28;93112;-76
2022/11/08 05:01:19;;;;;;;6.75;3.30;;;;;;;;;;4997152;28;93030;-76
2022/11/08 05:03:47;;;;;;;6.93;2.60;;;;;;;;;;4996482;28;94752;-76
2022/11/08 05:06:15;;;;;;;5.70;2.47;;;;;;;;;;4996535;28;93575;-76
2022/11/08 05:08:42;;;;;;;7.13;2.70;;;;;;;;;;4996970;28;92421;-76
2022/11/08 05:11:12;;;;;;;6.85;2.13;;;;;;;;;;5000563;28;93972;-76
2022/11/08 05:13:39;;;;;;;5.68;2.50;;;;;;;;;;4997160;28;92292;-76
2022/11/08 05:16:07;;;;;;;6.55;2.67;;;;;;;;;;4994703;28;92954;-76
2022/11/08 05:18:33;;;;;;;4.47;2.25;;;;;;;;;;4996534;28;94121;-76
2022/11/08 05:23:46;;;;;;;4.97;2.45;;;;;;;;;;4996241;28;92439;-76
2022/11/08 05:26:12;;;;;;;5.13;2.28;;;;;;;;;;4996817;28;93196;-76
2022/11/08 05:28:41;;;;;;;4.93;2.20;;;;;;;;;;4995498;28;94817;-76
2022/11/08 05:31:10;;;;;;;5.07;2.22;;;;;;;;;;4996328;28;95360;-76
2022/11/08 05:33:36;;;;;;;6.20;2.60;;;;;;;;;;4999082;28;93521;-76
2022/11/08 05:36:07;;;;;;;6.57;2.33;;;;;;;;;;4996787;28;93357;-76
2022/11/08 05:38:36;;;;;;;12.82;2.50;;;;;;;;;;4995599;28;93823;-76
2022/11/08 05:41:03;;;;;;;6.47;2.47;;;;;;;;;;4997631;28;92499;-76
2022/11/08 05:43:30;;;;;;;7.40;2.35;;;;;;;;;;4995507;28;93308;-76
2022/11/08 05:45:56;;;;;;;5.10;2.58;;;;;;;;;;4997111;28;92428;-76
2022/11/08 05:48:23;;;;;;;12.05;2.33;;;;;;;;;;4997548;28;94194;-76
2022/11/08 05:50:49;;;;;;;8.68;2.63;;;;;;;;;;4995831;28;92869;-76
2022/11/08 05:53:16;;;;;;;3.78;2.50;;;;;;;;;;4995028;28;97000;-76
2022/11/08 05:55:42;;;;;;;4.47;2.15;;;;;;;;;;4998324;28;92427;-76
2022/11/08 05:58:09;;;;;;;6.53;2.78;;;;;;;;;;4996139;28;94403;-76
2022/11/08 06:00:35;;;;;;;5.90;1.92;;;;;;;;;;4988419;28;92417;-77
2022/11/08 06:03:02;;;;;;;5.55;2.60;;;;;;;;;;4976340;28;93855;-75
2022/11/08 06:05:28;;;;;;;9.98;2.85;;;;;;;;;;4975778;28;93296;-75
2022/11/08 06:07:55;;;;;;;6.57;2.10;;;;;;;;;;4976161;28;92535;-75
2022/11/08 06:10:21;;;;;;;5.80;2.72;;;;;;;;;;4994397;28;93937;-76
2022/11/08 06:12:47;;;;;;;11.30;3.10;;;;;;;;;;4995044;28;93270;-76
2022/11/08 06:15:14;;;;;;;3.03;2.25;;;;;;;;;;4996569;28;92537;-76
2022/11/08 06:17:40;;;;;;;5.45;2.25;;;;;;;;;;4997262;28;94990;-76
2022/11/08 06:20:08;;;;;;;6.70;2.65;;;;;;;;;;4994907;28;92509;-76
2022/11/08 06:22:34;;;;;;;5.38;2.33;;;;;;;;;;4996404;28;92907;-76
2022/11/08 06:25:00;;;;;;;4.95;2.20;;;;;;;;;;4996161;28;93255;-76
2022/11/08 06:27:26;;;;;;;4.78;2.20;;;;;;;;;;4995541;28;92531;-75
2022/11/08 06:29:53;;;;;;;4.95;2.17;;;;;;;;;;4996484;28;94095;-75
2022/11/08 06:32:20;;;;;;;4.57;2.55;;;;;;;;;;4995094;28;93337;-76
2022/11/08 06:34:47;;;;;;;5.57;2.78;;;;;;;;;;4996278;28;92265;-76
2022/11/08 06:37:14;;;;;;;4.97;2.65;;;;;;;;;;4997983;28;93352;-76
2022/11/08 06:39:41;;;;;;;7.53;2.60;;;;;;;;;;4975130;28;92407;-76
2022/11/08 06:42:07;;;;;;;4.50;2.80;;;;;;;;;;4975070;28;94811;-75
2022/11/08 06:44:34;;;;;;;7.13;2.75;;;;;;;;;;4995093;28;93308;-75
2022/11/08 06:47:00;;;;;;;4.57;2.13;;;;;;;;;;4994478;28;92961;-76
2022/11/08 06:49:27;;;;;;;5.45;2.35;;;;;;;;;;4991615;28;92903;-75
2022/11/08 06:51:53;;;;;;;4.80;2.42;;;;;;;;;;4982137;28;94326;-76
2022/11/08 06:54:19;;;;;;;5.85;2.60;;;;;;;;;;4989592;28;92486;-76
2022/11/08 06:56:49;;;;;;;2.72;1.73;;;;;;;;;;4995047;28;92898;-76
2022/11/08 06:59:16;;;;;;;2.78;2.10;;;;;;;;;;4998805;28;92750;-75
2022/11/08 07:01:42;;;;;;;2.72;2.00;;;;;;;;;;4991812;28;92547;-74
2022/11/08 07:04:11;;;;;;;6.28;2.17;;;;;;;;;;4985433;28;94082;-75
2022/11/08 07:06:37;;;;;;;7.38;2.83;;;;;;;;;;4987815;28;96184;-75
2022/11/08 07:09:04;;;;;;;2.30;2.10;;;;;;;;;;4992699;28;96300;-75
2022/11/08 07:11:30;;;;;;;8.52;3.10;;;;;;;;;;4994048;28;93358;-77
2022/11/08 07:13:57;;;;;;;8.15;2.60;;;;;;;;;;4995972;28;92348;-74
2022/11/08 07:16:24;;;;;;;7.88;2.47;;;;;;;;;;4987398;28;94188;-75
2022/11/08 07:18:50;;;;;;;3.65;2.25;;;;;;;;;;4989890;28;94066;-75
2022/11/08 07:21:17;;;;;;;5.10;2.50;;;;;;;;;;4996713;28;92431;-75
2022/11/08 07:23:43;;;;;;;3.78;2.30;;;;;;;;;;4994657;28;93479;-75
2022/11/08 07:26:11;;;;;;;3.58;2.35;;;;;;;;;;4995342;28;92467;-75
2022/11/08 07:28:37;;;;;;;5.80;3.17;;;;;;;;;;4993481;28;93990;-75
2022/11/08 07:31:04;;;;;;;5.40;2.75;;;;;;;;;;4992366;28;96479;-75
2022/11/08 07:33:30;;;;;;;6.20;2.10;;;;;;;;;;4992577;28;94198;-75
2022/11/08 07:35:57;;;;;;;7.65;2.50;;;;;;;;;;4990939;28;94275;-75
2022/11/08 07:38:25;;;;;;;2.75;2.05;;;;;;;;;;4992225;28;94079;-74
2022/11/08 07:40:55;;;;;;;6.40;2.83;;;;;;;;;;4995579;28;93061;-74
2022/11/08 07:43:22;;;;;;;17.40;2.67;;;;;;;;;;4994283;28;93844;-75
2022/11/08 07:45:52;;;;;;;4.88;2.40;;;;;;;;;;4970035;28;92574;-76
2022/11/08 07:48:18;;;;;;;2.75;2.20;;;;;;;;;;4992688;28;93262;-76
2022/11/08 07:50:45;;;;;;;4.38;2.80;;;;;;;;;;4994796;28;94630;-75
2022/11/08 07:53:13;;;;;;;5.20;2.60;;;;;;;;;;4993689;28;92707;-75
2022/11/08 07:55:39;;;;;;;5.22;2.40;;;;;;;;;;4991155;28;94808;-75
2022/11/08 07:58:07;;;;;;;4.63;2.30;;;;;;;;;;4993155;28;93428;-76
2022/11/08 08:00:35;;;;;;;4.93;2.72;;;;;;;;;;4988513;28;93548;-76
2022/11/08 08:03:02;;;;;;;5.55;2.63;;;;;;;;;;4984459;28;92832;-76
2022/11/08 08:05:29;;;;;;;5.82;2.55;;;;;;;;;;4990037;28;94246;-76
2022/11/08 08:07:56;;;;;;;3.83;2.33;;;;;;;;;;4992890;28;93229;-76
2022/11/08 08:10:23;;;;;;;4.03;2.13;;;;;;;;;;4991209;28;94168;-76
2022/11/08 08:12:49;;;;;;;4.15;2.25;;;;;;;;;;4976449;28;91671;-77
2022/11/08 08:15:16;;;;;;;11.05;3.80;;;;;;;;;;4995528;28;93576;-77
2022/11/08 08:17:42;;;;;;;5.53;2.88;;;;;;;;;;4993306;28;93200;-77
2022/11/08 08:20:08;;;;;;;6.10;2.30;;;;;;;;;;4995847;28;94983;-77
2022/11/08 08:22:35;;;;;;;2.80;2.42;;;;;;;;;;4994079;28;95536;-76
2022/11/08 08:25:01;;;;;;;4.18;2.00;;;;;;;;;;4997930;28;93996;-76
2022/11/08 08:27:28;;;;;;;2.58;2.28;;;;;;;;;;5001270;28;92361;-76
2022/11/08 08:29:55;;;;;;;11.27;2.25;;;;;;;;;;4996967;28;94126;-77
2022/11/08 08:32:21;;;;;;;4.40;2.00;;;;;;;;;;4996516;28;93050;-76
2022/11/08 08:34:47;;;;;;;3.47;2.33;;;;;;;;;;4998072;28;93169;-77
2022/11/08 08:37:15;;;;;;;3.67;2.08;;;;;;;;;;4996964;28;92834;-77
2022/11/08 08:39:42;;;;;;;3.92;1.88;;;;;;;;;;4995591;28;95940;-77
2022/11/08 08:42:08;;;;;;;2.63;2.03;;;;;;;;;;4998282;28;93806;-77
2022/11/08 08:44:34;;;;;;;2.92;1.67;;;;;;;;;;4995230;28;96888;-76
2022/11/08 08:47:00;;;;;;;3.33;1.90;;;;;;;;;;4999584;28;92497;-77
2022/11/08 08:49:27;;;;;;;2.92;2.30;;;;;;;;;;4996284;28;93516;-76
2022/11/08 08:51:53;;;;;;;8.98;2.35;;;;;;;;;;4997298;28;92373;-76
2022/11/08 08:54:19;;;;;;;6.13;3.20;;;;;;;;;;4995202;28;93016;-77
2022/11/08 08:56:52;;;;;;;2.90;1.88;;;;;;;;;;4997655;28;93488;-77
2022/11/08 08:59:18;;;;;;;4.50;2.28;;;;;;;;;;4978880;28;92998;-77
2022/11/08 09:02:05;;;;;;;5.03;1.98;;;;;;;;;;4995143;28;91900;-79
2022/11/08 09:04:31;;;;;;;4.53;1.83;;;;;;;;;;4996638;28;94337;-76
2022/11/08 09:06:57;;;;;;;1.83;1.55;;;;;;;;;;4997918;28;92507;-76
2022/11/08 09:09:24;;;;;;;4.20;2.10;;;;;;;;;;4995200;28;95253;-76
2022/11/08 09:11:50;;;;;;;2.38;1.70;;;;;;;;;;4996723;28;92554;-75
2022/11/08 09:14:17;;;;;;;4.28;1.90;;;;;;;;;;4997001;28;93888;-75
2022/11/08 09:16:43;;;;;;;4.25;2.45;;;;;;;;;;4996576;28;93941;-75
2022/11/08 09:19:10;;;;;;;4.32;2.22;;;;;;;;;;4995913;28;92518;-75
2022/11/08 09:21:36;;;;;;;4.10;1.95;;;;;;;;;;4995622;28;93923;-75
2022/11/08 09:24:03;;;;;;;2.25;1.70;;;;;;;;;;4997606;28;94227;-74
2022/11/08 09:26:29;;;;;;;3.08;2.28;;;;;;;;;;4996950;28;91737;-75
2022/11/08 09:28:55;;;;;;;13.70;2.45;;;;;;;;;;4996555;28;93153;-75
2022/11/08 09:31:22;;;;;;;5.28;2.30;;;;;;;;;;4997109;28;94440;-75
2022/11/08 09:33:48;;;;;;;4.75;2.00;;;;;;;;;;4993477;28;94835;-73
2022/11/08 09:36:14;;;;;;;4.03;1.90;;;;;;;;;;4996411;28;93184;-74
2022/11/08 09:38:41;;;;;;;7.70;2.30;;;;;;;;;;4993524;28;92527;-76
2022/11/08 09:41:17;;;;;;;5.38;2.30;;;;;;;;;;4997198;28;93904;-75
2022/11/08 09:44:02;;;;;;;3.03;1.98;;;;;;;;;;4996230;28;94062;-74
2022/11/08 09:46:40;;;;;;;4.97;2.63;;;;;;;;;;4996651;28;92519;-76
2022/11/08 09:49:12;;;;;;;2.75;2.15;;;;;;;;;;4996802;28;94405;-75
2022/11/08 09:51:39;;;;;;;5.88;2.17;;;;;;;;;;4995038;28;92775;-76
2022/11/08 09:54:07;;;;;;;3.15;2.03;;;;;;;;;;4997690;28;92649;-76
2022/11/08 09:56:35;;;;;;;6.82;2.25;;;;;;;;;;4975037;28;93133;-75
2022/11/08 09:59:16;;;;;;;3.58;2.20;;;;;;;;;;4979491;28;95607;-75
2022/11/08 10:01:42;;;;;;;5.72;2.08;;;;;;;;;;4994673;28;95285;-75
2022/11/08 10:04:14;;;;;;;4.65;2.03;;;;;;;;;;4995896;28;94330;-75
2022/11/08 10:06:49;;;;;;;2.85;2.53;;;;;;;;;;4994129;28;93852;-75
2022/11/08 10:09:34;;;;;;;2.75;2.25;;;;;;;;;;4979473;28;93047;-75
2022/11/08 10:12:10;;;;;;;6.30;2.10;;;;;;;;;;4981102;28;94142;-76
2022/11/08 10:14:43;;;;;;;5.28;1.92;;;;;;;;;;4995827;28;92440;-73
2022/11/08 10:17:33;;;;;;;6.47;2.33;;;;;;;;;;4995268;28;93881;-76
2022/11/08 10:20:12;;;;;;;2.83;2.15;;;;;;;;;;4996528;28;92465;-76
2022/11/08 10:22:46;;;;;;;2.20;1.60;;;;;;;;;;4995693;28;93203;-76
2022/11/08 10:25:21;;;;;;;9.73;1.83;;;;;;;;;;4993937;28;96593;-76
2022/11/08 10:27:50;;;;;;;4.13;1.80;;;;;;;;;;4996222;28;92453;-76
2022/11/08 10:30:28;;;;;;;3.92;1.92;;;;;;;;;;4994596;28;93415;-77
2022/11/08 10:32:54;;;;;;;2.67;1.60;;;;;;;;;;4992055;28;94153;-74
2022/11/08 10:35:27;;;;;;;3.90;1.77;;;;;;;;;;4993282;28;94497;-77
2022/11/08 10:37:54;;;;;;;5.00;2.35;;;;;;;;;;4988704;28;93962;-77
2022/11/08 10:40:34;;;;;;;4.97;1.80;;;;;;;;;;4989452;28;93497;-76
2022/11/08 10:43:04;;;;;;;2.80;1.88;;;;;;;;;;4993120;28;93822;-76
2022/11/08 10:45:42;;;;;;;3.33;2.00;;;;;;;;;;4979058;28;94080;-77
2022/11/08 10:48:10;;;;;;;3.55;1.73;;;;;;;;;;4990977;28;92505;-76
2022/11/08 10:50:41;;;;;;;3.33;1.92;;;;;;;;;;4990903;28;96891;-77
2022/11/08 10:53:11;;;;;;;4.03;2.00;;;;;;;;;;4979330;28;94246;-76
2022/11/08 10:55:45;;;;;;;3.42;1.85;;;;;;;;;;4993946;28;93789;-77
2022/11/08 10:58:30;;;;;;;4.53;1.60;;;;;;;;;;4997263;28;94377;-75
2022/11/08 11:01:00;;;;;;;3.25;1.55;;;;;;;;;;4997174;28;94396;-75
2022/11/08 11:03:29;;;;;;;5.47;2.00;;;;;;;;;;4995387;28;93865;-76
2022/11/08 11:05:59;;;;;;;1.65;1.55;;;;;;;;;;4996093;28;94316;-76
2022/11/08 11:08:26;;;;;;;2.88;1.77;;;;;;;;;;4995401;28;91743;-76
2022/11/08 11:10:53;;;;;;;1.90;1.80;;;;;;;;;;4995553;28;93116;-76
2022/11/08 11:13:23;;;;;;;1.50;1.40;;;;;;;;;;4994314;28;93422;-77
2022/11/08 11:15:51;;;;;;;3.80;3.10;;;;;;;;;;4993552;28;94910;-76
2022/11/08 11:18:18;;;;;;;5.35;2.20;;;;;;;;;;4995091;28;96301;-77
2022/11/08 11:21:15;;;;;;;2.13;1.92;;;;;;;;;;4995094;28;93223;-76
2022/11/08 11:23:43;;;;;;;5.22;2.25;;;;;;;;;;4964822;28;92587;-76
2022/11/08 11:26:27;;;;;;;4.18;1.63;;;;;;;;;;4985159;28;94315;-76
2022/11/08 11:29:16;;;;;;;3.00;1.85;;;;;;;;;;4994559;28;92515;-77
2022/11/08 11:31:44;;;;;;;8.57;2.20;;;;;;;;;;4984330;28;94512;-76
2022/11/08 11:34:17;;;;;;;29.25;2.65;;;;;;;;;;4996043;28;93502;-76
2022/11/08 11:36:51;;;;;;;7.35;2.00;;;;;;;;;;4994792;28;92892;-76
2022/11/08 11:39:21;;;;;;;7.93;2.00;;;;;;;;;;4979581;28;93950;-76
2022/11/08 11:42:06;;;;;;;3.30;1.77;;;;;;;;;;4992432;28;95762;-76
2022/11/08 11:45:04;;;;;;;3.08;1.85;;;;;;;;;;4993203;28;92614;-77
2022/11/08 11:47:32;;;;;;;6.78;2.50;;;;;;;;;;4996488;28;93930;-76
2022/11/08 11:50:21;;;;;;;3.35;2.05;;;;;;;;;;4994621;28;92606;-76
2022/11/08 11:52:48;;;;;;;2.42;1.83;;;;;;;;;;4991149;28;94398;-76
2022/11/08 11:55:15;;;;;;;4.00;2.20;;;;;;;;;;4994983;28;94102;-76
2022/11/08 11:57:50;;;;;;;4.22;2.22;;;;;;;;;;4996004;28;92544;-76
2022/11/08 12:00:16;;;;;;;6.75;2.00;;;;;;;;;;4999763;28;93701;-75
2022/11/08 12:02:45;;;;;;;1.98;1.75;;;;;;;;;;4997930;28;93607;-75
2022/11/08 12:05:27;;;;;;;7.22;1.88;;;;;;;;;;4994810;28;92480;-76
2022/11/08 12:08:05;;;;;;;2.70;2.10;;;;;;;;;;4994662;28;94878;-75
2022/11/08 12:10:42;;;;;;;3.83;2.20;;;;;;;;;;5000154;28;93476;-75
2022/11/08 12:13:22;;;;;;;2.22;1.83;;;;;;;;;;4998469;28;93166;-75
2022/11/08 12:16:08;;;;;;;3.33;1.70;;;;;;;;;;4998751;28;93522;-75
2022/11/08 12:18:37;;;;;;;3.45;1.80;;;;;;;;;;4982470;28;92552;-76
2022/11/08 12:21:13;;;;;;;4.75;1.98;;;;;;;;;;4996766;28;93202;-75
2022/11/08 12:23:51;;;;;;;2.92;1.88;;;;;;;;;;4985059;28;94205;-75
2022/11/08 12:26:34;;;;;;;2.17;1.55;;;;;;;;;;4996585;28;91688;-75
2022/11/08 12:29:20;;;;;;;3.13;2.05;;;;;;;;;;4995784;28;94216;-75
2022/11/08 12:32:03;;;;;;;4.22;1.77;;;;;;;;;;4995080;28;94225;-75
2022/11/08 12:34:35;;;;;;;9.27;1.77;;;;;;;;;;4998412;28;94909;-77
2022/11/08 12:37:28;;;;;;;2.35;2.08;;;;;;;;;;4996091;28;94186;-76
2022/11/08 12:40:13;;;;;;;8.57;2.00;;;;;;;;;;4984146;28;92445;-76
2022/11/08 12:42:48;;;;;;;4.00;2.13;;;;;;;;;;4996536;28;94185;-75
2022/11/08 12:45:20;;;;;;;2.53;1.90;;;;;;;;;;4997713;28;94362;-75
2022/11/08 12:47:47;;;;;;;;;;;;;;;;;;4996879;28;92419;-74
2022/11/08 12:50:22;;;;;;;3.15;1.50;;;;;;;;;;4995380;28;123806;-79
2022/11/08 12:53:07;;;;;;;3.78;1.90;;;;;;;;;;4983188;28;92779;-75
2022/11/08 12:55:34;;;;;;;3.83;1.90;;;;;;;;;;4998859;28;94143;-75
2022/11/08 12:58:04;;;;;;;9.20;1.80;;;;;;;;;;4998443;28;93027;-75
2022/11/08 13:00:31;;;;;;;2.60;1.77;;;;;;;;;;4994270;28;94910;-76
2022/11/08 13:03:08;;;;;;;7.07;2.15;;;;;;;;;;4998055;28;96293;-75
2022/11/08 13:05:41;;;;;;;5.10;1.98;;;;;;;;;;4997175;28;94522;-76
2022/11/08 13:08:14;;;;;;;5.55;1.70;;;;;;;;;;4997308;28;92499;-76
2022/11/08 13:10:51;;;;;;;3.78;1.90;;;;;;;;;;4997896;28;93866;-76
2022/11/08 13:13:36;;;;;;;5.07;2.13;;;;;;;;;;4997603;28;94366;-76
2022/11/08 13:16:22;;;;;;;5.93;2.03;;;;;;;;;;4997865;28;92793;-76
2022/11/08 13:18:49;;;;;;;4.70;1.52;;;;;;;;;;4995600;28;92903;-76
2022/11/08 13:21:24;;;;;;;11.68;2.22;;;;;;;;;;4994108;28;93000;-77
2022/11/08 13:23:51;;;;;;;10.98;2.45;;;;;;;;;;4996928;28;93069;-76
2022/11/08 13:26:22;;;;;;;6.75;2.22;;;;;;;;;;4993271;28;96871;-86
2022/11/08 13:28:49;;;;;;;3.22;2.15;;;;;;;;;;4996938;28;92494;-76
2022/11/08 13:31:18;;;;;;;5.80;2.88;;;;;;;;;;4987171;28;94033;-77
2022/11/08 13:34:07;;;;;;;3.53;1.85;;;;;;;;;;4977643;28;94036;-81
2022/11/08 13:36:42;;;;;;;82.22;61.28;;;;;;;;;;4991134;28;92962;-78
2022/11/08 13:39:16;;;;;;;6.25;3.30;;;;;;;;;;4997436;28;93930;-78
2022/11/08 13:42:12;;;;;;;4.30;2.33;;;;;;;;;;4997476;28;95075;-79
2022/11/08 13:44:53;;;;;;;2.10;1.88;;;;;;;;;;4940979;28;93447;-79
2022/11/08 13:47:32;;;;;;;10.50;2.28;;;;;;;;;;4977534;28;94317;-79
2022/11/08 13:50:17;;;;;;;5.10;2.00;;;;;;;;;;4996523;28;92310;-78
2022/11/08 13:52:45;;;;;;;4.43;2.33;;;;;;;;;;4994651;28;94900;-80
2022/11/08 13:55:50;;;;;;;5.75;2.10;;;;;;;;;;4997599;28;93050;-80
2022/11/08 13:58:31;;;;;;;2.90;1.90;;;;;;;;;;4914635;28;92463;-80
2022/11/08 14:00:57;;;;;;;3.35;1.90;;;;;;;;;;4914278;28;94014;-80
2022/11/08 14:03:32;;;;;;;4.75;2.13;;;;;;;;;;4958249;28;93108;-80
2022/11/08 14:06:05;;;;;;;5.93;2.15;;;;;;;;;;5001136;28;92533;-81
2022/11/08 14:08:58;;;;;;;4.22;2.20;;;;;;;;;;4994878;28;94153;-83
2022/11/08 14:11:27;;;;;;;7.63;2.53;;;;;;;;;;4997694;28;92083;-82
2022/11/08 14:14:01;;;;;;;4.28;2.10;;;;;;;;;;4998546;28;92433;-82
2022/11/08 14:16:31;;;;;;;6.45;1.80;;;;;;;;;;4997999;28;93744;-81
2022/11/08 14:19:16;;;;;;;4.03;2.30;;;;;;;;;;4986702;28;94934;-79
2022/11/08 14:21:53;;;;;;;8.30;2.42;;;;;;;;;;4959891;28;96501;-77
2022/11/08 14:24:25;;;;;;;8.98;2.38;;;;;;;;;;4993532;28;93258;-78
2022/11/08 14:26:52;;;;;;;3.78;1.85;;;;;;;;;;4993390;28;92463;-81
2022/11/08 14:29:19;;;;;;;4.47;2.42;;;;;;;;;;4998932;28;94357;-81
2022/11/08 14:31:46;;;;;;;14.07;2.25;;;;;;;;;;4996355;28;92461;-82
2022/11/08 14:34:25;;;;;;;6.93;1.90;;;;;;;;;;4995086;28;94049;-81
2022/11/08 14:36:53;;;;;;;3.42;1.60;;;;;;;;;;4996653;28;92939;-80
2022/11/08 14:39:27;;;;;;;4.70;2.45;;;;;;;;;;4993900;28;92873;-78
2022/11/08 14:41:54;;;;;;;3.25;2.20;;;;;;;;;;4996495;28;93884;-78
2022/11/08 14:44:21;;;;;;;8.95;2.50;;;;;;;;;;4994859;28;95612;-78
2022/11/08 14:46:49;;;;;;;6.45;2.33;;;;;;;;;;4992971;28;92557;-79
2022/11/08 14:49:20;;;;;;;7.20;1.92;;;;;;;;;;4996083;28;93981;-78
2022/11/08 14:51:47;;;;;;;8.85;1.88;;;;;;;;;;4997839;28;93352;-77
2022/11/08 14:54:20;;;;;;;8.90;2.33;;;;;;;;;;4995372;28;95063;-76
2022/11/08 14:56:47;;;;;;;5.80;1.80;;;;;;;;;;4991866;28;94194;-76
2022/11/08 14:59:13;;;;;;;4.82;1.67;;;;;;;;;;4993810;28;92905;-76
2022/11/08 15:01:42;;;;;;;8.23;2.28;;;;;;;;;;4992409;28;93727;-78
2022/11/08 15:04:14;;;;;;;15.23;1.90;;;;;;;;;;4990192;28;94325;-75
2022/11/08 15:06:51;;;;;;;2.87;1.97;;;;;;;;;;4989583;28;92524;-76
2022/11/08 15:09:23;;;;;;;5.40;2.28;;;;;;;;;;4974281;28;95081;-76
2022/11/08 15:11:51;;;;;;;5.45;1.83;;;;;;;;;;4979297;28;93115;-76
2022/11/08 15:14:19;;;;;;;3.38;2.17;;;;;;;;;;4983148;28;93992;-77
2022/11/08 15:16:47;;;;;;;3.38;2.13;;;;;;;;;;4987720;28;93128;-78